« お見送り 富山新港 2014/10/18 sat | トップページ | えとぴりか 富山新港 2014/10/25 sat »

2014/10/19

秋空 富山空港 2014/10/19 sun

昨日に続いて全天の青空。実りの秋でもあります。

RJNT 190100Z VRB03KT 9999 FEW030 19/05 Q1026

20141019_rjnt_00ja816a

20141019_rjnt_01ja816a

ANA883 RJTT-RJNT JA816A B787-8

20141019_rjnt_02hl7722

AAR128 RKSI-RJNT HL7722 A321-231

20141019_rjnt_03hl7722

雨ではないのに・・・

20141019_rjnt_04n

上空で交差する飛び屋さん達

UPS80/N251UP CES279/B-6693

20141019_rjnt_05b18608

20141019_rjnt_06b18608

CAL170 RCTP-RJNT B-18608 B737-809

20141019_rjnt_07b18608

地表は陽炎、蜃気楼越しに立山が見えたとか・・

20141019_rjnt_08n

DAL158 RKSI-KDTW N862DA B777-232ER

20141019_rjnt_09ja816a

20141019_rjnt_10ja816a

ANA886 RJNT-RJTT JA816A B787-8
上空は、 CCA951/B-5175

20141019_rjnt_11hl7722

20141019_rjnt_12hl7722

20141019_rjnt_13hl7722

AAR127 RJNT-RKSI HL7722 A321-231

RJNT 190300Z 34005KT 280V010 9999 FEW030 22/06 Q1025

20141019_rjnt_14ja6769

今日の6769 動きなし

20141019_rjnt_15ja021r

JA021R C25A (525A CitationJet CJ2+)

20141019_rjnt_16b18608

対岸で空港方面を見ると・・・ ぬぬぬ、あれは御嶽山の噴煙? 

20141019_rjnt_17b18608

20141019_rjnt_18b18608

CAL171 RJNT-RCTP B-18608 B737-809

20141019_rjnt_19ja021r

20141019_rjnt_20ja021r

20141019_rjnt_21ja021r

JA021R C25A (525A CitationJet CJ2+) -RJTT

20141019_rjnt_22ja8504

20141019_rjnt_23ja8504

ADO120 RJCC-RJNT JA8504 B737-54K

20141019_rjnt_24ja3842

JA3842 A-36

RJNT 190500Z 35007KT 9999 FEW030 21/07 Q1024

20141019_rjnt_25ja6768

緊急運行で、収容後空港を横切って病院へ向かう防災へり

JA6768 B412 富山県消防防災

20141019_rjnt_26ja819a

20141019_rjnt_27ja819a

ANA885 RJTT-RJNT JA819A B787-8

20141019_rjnt_28ja8504

ADO121 RJNT-RJCC JA8504 B737-54K

20141019_rjnt_29ja3842

JA3842 A36

20141019_rjnt_30ja819a

20141019_rjnt_31ja819a

20141019_rjnt_32ja819a

ANA888 RJNT-RJTT JA819A B787-8

20141019_rjnt_33n

DAL588 ZSPD-KSEA N853NW A333-223

20141019_rjnt_34ja821a

20141019_rjnt_35ja821a

ANA887 RJTT-RJNT JA821A B787-8

RJNT 190500Z 35007KT 9999 FEW030 21/07 Q1024

RJTT-RJNT
ANA     /882 JA8674
ANA881/884 JA8677
ANA883/886 JA816A
ANA885/888 JA819A
ANA887/890 JA821A
ANA889/892 JA816A
ANA891       JA8342

RJCC-RJNT
ADO120/121 JA8504

RKSI-RJNT
AAR128/127 HL7722 

RCTP-RJNT
CAL170/171 B-18608

|

« お見送り 富山新港 2014/10/18 sat | トップページ | えとぴりか 富山新港 2014/10/25 sat »

富山空港」カテゴリの記事

コメント

コメントを書く



(ウェブ上には掲載しません)


コメントは記事投稿者が公開するまで表示されません。



トラックバック


この記事へのトラックバック一覧です: 秋空 富山空港 2014/10/19 sun:

« お見送り 富山新港 2014/10/18 sat | トップページ | えとぴりか 富山新港 2014/10/25 sat »